sensor_id;sensor_type;location;lat;lon;timestamp;pressure;altitude;pressure_sealevel;temperature;humidity
79686;BME280;69153;47.918;11.428;2023-04-24T00:00:00;94284.09;;;12.75;62.24
79686;BME280;69153;47.918;11.428;2023-04-24T00:02:26;94278.97;;;12.71;61.96
79686;BME280;69153;47.918;11.428;2023-04-24T00:04:51;94281.28;;;12.78;61.41
79686;BME280;69153;47.918;11.428;2023-04-24T00:07:17;94275.31;;;12.60;61.70
79686;BME280;69153;47.918;11.428;2023-04-24T00:09:43;94271.56;;;12.42;62.29
79686;BME280;69153;47.918;11.428;2023-04-24T00:12:09;94269.03;;;12.48;62.67
79686;BME280;69153;47.918;11.428;2023-04-24T00:14:35;94269.28;;;12.59;62.48
79686;BME280;69153;47.918;11.428;2023-04-24T00:17:01;94265.84;;;12.68;62.32
79686;BME280;69153;47.918;11.428;2023-04-24T00:19:28;94261.72;;;12.34;62.86
79686;BME280;69153;47.918;11.428;2023-04-24T00:21:53;94271.38;;;12.13;63.96
79686;BME280;69153;47.918;11.428;2023-04-24T00:24:20;94275.13;;;11.97;64.57
79686;BME280;69153;47.918;11.428;2023-04-24T00:26:46;94267.88;;;12.07;63.98
79686;BME280;69153;47.918;11.428;2023-04-24T00:29:11;94262.16;;;11.99;64.18
79686;BME280;69153;47.918;11.428;2023-04-24T00:31:37;94265.13;;;11.83;64.86
79686;BME280;69153;47.918;11.428;2023-04-24T00:34:03;94267.34;;;11.94;63.70
79686;BME280;69153;47.918;11.428;2023-04-24T00:36:30;94265.56;;;11.91;62.46
79686;BME280;69153;47.918;11.428;2023-04-24T00:38:56;94267.16;;;12.06;62.16
79686;BME280;69153;47.918;11.428;2023-04-24T00:41:22;94260.31;;;12.14;62.13
79686;BME280;69153;47.918;11.428;2023-04-24T00:43:49;94258.59;;;12.02;61.65
79686;BME280;69153;47.918;11.428;2023-04-24T00:46:16;94252.75;;;12.22;61.63
79686;BME280;69153;47.918;11.428;2023-04-24T00:48:43;94248.81;;;12.18;61.53
79686;BME280;69153;47.918;11.428;2023-04-24T00:51:09;94249.63;;;12.33;60.97
79686;BME280;69153;47.918;11.428;2023-04-24T00:53:34;94248.72;;;12.36;61.03
79686;BME280;69153;47.918;11.428;2023-04-24T00:56:00;94243.84;;;12.34;60.72
79686;BME280;69153;47.918;11.428;2023-04-24T00:58:27;94246.13;;;12.27;60.92
79686;BME280;69153;47.918;11.428;2023-04-24T01:00:52;94243.13;;;12.34;60.55
79686;BME280;69153;47.918;11.428;2023-04-24T01:03:26;94247.53;;;12.37;60.64
79686;BME280;69153;47.918;11.428;2023-04-24T01:05:52;94244.78;;;12.31;60.82
79686;BME280;69153;47.918;11.428;2023-04-24T01:08:20;94259.00;;;12.10;61.68
79686;BME280;69153;47.918;11.428;2023-04-24T01:10:51;94255.41;;;11.89;61.97
79686;BME280;69153;47.918;11.428;2023-04-24T01:13:18;94257.91;;;11.84;61.55
79686;BME280;69153;47.918;11.428;2023-04-24T01:15:44;94260.41;;;11.87;61.68
79686;BME280;69153;47.918;11.428;2023-04-24T01:18:10;94248.09;;;12.08;61.37
79686;BME280;69153;47.918;11.428;2023-04-24T01:20:37;94250.31;;;12.09;60.93
79686;BME280;69153;47.918;11.428;2023-04-24T01:23:08;94261.16;;;12.30;60.39
79686;BME280;69153;47.918;11.428;2023-04-24T01:25:34;94258.94;;;12.28;59.66
79686;BME280;69153;47.918;11.428;2023-04-24T01:28:01;94250.84;;;12.23;59.60
79686;BME280;69153;47.918;11.428;2023-04-24T01:30:27;94256.97;;;12.38;59.40
79686;BME280;69153;47.918;11.428;2023-04-24T01:32:53;94258.66;;;12.26;58.83
79686;BME280;69153;47.918;11.428;2023-04-24T01:35:19;94259.16;;;12.15;59.29
79686;BME280;69153;47.918;11.428;2023-04-24T01:37:45;94254.03;;;12.03;59.84
79686;BME280;69153;47.918;11.428;2023-04-24T01:40:11;94250.88;;;12.13;59.90
79686;BME280;69153;47.918;11.428;2023-04-24T01:42:37;94250.38;;;11.91;60.01
79686;BME280;69153;47.918;11.428;2023-04-24T01:45:04;94253.31;;;11.93;59.59
79686;BME280;69153;47.918;11.428;2023-04-24T01:47:30;94244.97;;;11.76;60.63
79686;BME280;69153;47.918;11.428;2023-04-24T01:49:57;94247.59;;;11.86;59.75
79686;BME280;69153;47.918;11.428;2023-04-24T01:52:23;94248.81;;;12.08;59.76
79686;BME280;69153;47.918;11.428;2023-04-24T01:54:48;94250.31;;;12.09;59.29
79686;BME280;69153;47.918;11.428;2023-04-24T01:57:16;94249.91;;;12.02;60.11
79686;BME280;69153;47.918;11.428;2023-04-24T01:59:41;94246.81;;;12.03;59.79
79686;BME280;69153;47.918;11.428;2023-04-24T02:02:07;94248.44;;;12.01;60.33
79686;BME280;69153;47.918;11.428;2023-04-24T02:04:33;94249.75;;;12.05;60.01
79686;BME280;69153;47.918;11.428;2023-04-24T02:06:58;94244.97;;;12.19;59.63
79686;BME280;69153;47.918;11.428;2023-04-24T02:09:24;94254.63;;;11.98;59.81
79686;BME280;69153;47.918;11.428;2023-04-24T02:11:50;94250.19;;;12.04;59.74
79686;BME280;69153;47.918;11.428;2023-04-24T02:14:15;94247.28;;;11.74;59.53
79686;BME280;69153;47.918;11.428;2023-04-24T02:16:40;94252.59;;;11.84;59.83
79686;BME280;69153;47.918;11.428;2023-04-24T02:19:06;94247.63;;;11.67;60.45
79686;BME280;69153;47.918;11.428;2023-04-24T02:21:31;94250.69;;;11.75;60.50
79686;BME280;69153;47.918;11.428;2023-04-24T02:23:57;94246.16;;;11.57;60.44
79686;BME280;69153;47.918;11.428;2023-04-24T02:26:23;94252.66;;;11.47;61.38
79686;BME280;69153;47.918;11.428;2023-04-24T02:28:48;94247.78;;;11.55;61.38
79686;BME280;69153;47.918;11.428;2023-04-24T02:31:14;94246.16;;;11.66;60.55
79686;BME280;69153;47.918;11.428;2023-04-24T02:33:40;94248.91;;;11.90;60.55
79686;BME280;69153;47.918;11.428;2023-04-24T02:36:06;94251.53;;;11.99;60.12
79686;BME280;69153;47.918;11.428;2023-04-24T02:38:31;94255.75;;;12.15;60.35
79686;BME280;69153;47.918;11.428;2023-04-24T02:40:57;94249.31;;;11.98;59.98
79686;BME280;69153;47.918;11.428;2023-04-24T02:43:22;94250.88;;;12.13;59.81
79686;BME280;69153;47.918;11.428;2023-04-24T02:45:48;94258.44;;;12.06;59.79
79686;BME280;69153;47.918;11.428;2023-04-24T02:48:14;94259.03;;;12.01;59.81
79686;BME280;69153;47.918;11.428;2023-04-24T02:50:39;94251.69;;;11.96;60.13
79686;BME280;69153;47.918;11.428;2023-04-24T02:53:05;94250.81;;;11.90;60.84
79686;BME280;69153;47.918;11.428;2023-04-24T02:55:30;94255.81;;;11.97;60.52
79686;BME280;69153;47.918;11.428;2023-04-24T02:57:55;94249.44;;;12.03;60.40
79686;BME280;69153;47.918;11.428;2023-04-24T03:00:21;94249.16;;;12.01;60.28
79686;BME280;69153;47.918;11.428;2023-04-24T03:02:47;94255.94;;;12.02;60.20
79686;BME280;69153;47.918;11.428;2023-04-24T03:05:12;94255.16;;;12.11;59.97
79686;BME280;69153;47.918;11.428;2023-04-24T03:07:38;94255.34;;;11.98;60.31
79686;BME280;69153;47.918;11.428;2023-04-24T03:10:04;94254.53;;;11.74;61.53
79686;BME280;69153;47.918;11.428;2023-04-24T03:12:31;94260.56;;;11.74;61.25
79686;BME280;69153;47.918;11.428;2023-04-24T03:14:56;94260.56;;;11.74;61.42
79686;BME280;69153;47.918;11.428;2023-04-24T03:17:22;94264.88;;;11.63;62.14
79686;BME280;69153;47.918;11.428;2023-04-24T03:19:47;94259.28;;;11.52;62.42
79686;BME280;69153;47.918;11.428;2023-04-24T03:22:13;94255.00;;;11.45;62.67
79686;BME280;69153;47.918;11.428;2023-04-24T03:24:39;94264.28;;;11.50;62.22
79686;BME280;69153;47.918;11.428;2023-04-24T03:27:05;94261.19;;;11.60;62.45
79686;BME280;69153;47.918;11.428;2023-04-24T03:29:30;94254.69;;;11.79;61.67
79686;BME280;69153;47.918;11.428;2023-04-24T03:31:56;94255.53;;;11.86;61.72
79686;BME280;69153;47.918;11.428;2023-04-24T03:34:21;94257.66;;;11.54;62.23
79686;BME280;69153;47.918;11.428;2023-04-24T03:36:47;94254.53;;;11.56;62.48
79686;BME280;69153;47.918;11.428;2023-04-24T03:39:13;94246.91;;;11.49;62.07
79686;BME280;69153;47.918;11.428;2023-04-24T03:41:38;94251.03;;;11.50;62.64
79686;BME280;69153;47.918;11.428;2023-04-24T03:44:04;94243.38;;;11.33;62.63
79686;BME280;69153;47.918;11.428;2023-04-24T03:46:29;94245.44;;;11.48;62.91
79686;BME280;69153;47.918;11.428;2023-04-24T03:48:55;94241.59;;;11.30;63.37
79686;BME280;69153;47.918;11.428;2023-04-24T03:51:20;94245.16;;;11.36;63.48
79686;BME280;69153;47.918;11.428;2023-04-24T03:53:46;94240.84;;;11.66;62.60
79686;BME280;69153;47.918;11.428;2023-04-24T03:56:11;94233.31;;;11.65;62.41
79686;BME280;69153;47.918;11.428;2023-04-24T03:58:36;94235.81;;;11.77;62.23
79686;BME280;69153;47.918;11.428;2023-04-24T04:01:02;94234.03;;;11.84;61.74
79686;BME280;69153;47.918;11.428;2023-04-24T04:03:28;94233.84;;;11.96;61.68
79686;BME280;69153;47.918;11.428;2023-04-24T04:05:53;94231.91;;;11.97;61.55
79686;BME280;69153;47.918;11.428;2023-04-24T04:08:19;94235.00;;;12.04;61.42
79686;BME280;69153;47.918;11.428;2023-04-24T04:10:45;94226.94;;;11.90;62.13
79686;BME280;69153;47.918;11.428;2023-04-24T04:13:10;94232.53;;;11.82;62.21
79686;BME280;69153;47.918;11.428;2023-04-24T04:15:36;94237.13;;;11.73;62.55
79686;BME280;69153;47.918;11.428;2023-04-24T04:18:01;94233.03;;;11.81;62.31
79686;BME280;69153;47.918;11.428;2023-04-24T04:20:27;94245.38;;;11.84;62.32
79686;BME280;69153;47.918;11.428;2023-04-24T04:22:52;94245.38;;;11.75;62.64
79686;BME280;69153;47.918;11.428;2023-04-24T04:25:18;94246.16;;;11.75;62.64
79686;BME280;69153;47.918;11.428;2023-04-24T04:27:45;94245.81;;;11.73;63.16
79686;BME280;69153;47.918;11.428;2023-04-24T04:30:13;94247.28;;;11.84;62.97
79686;BME280;69153;47.918;11.428;2023-04-24T04:32:39;94251.13;;;11.92;62.56
79686;BME280;69153;47.918;11.428;2023-04-24T04:35:05;94253.78;;;11.92;62.32
79686;BME280;69153;47.918;11.428;2023-04-24T04:37:31;94254.38;;;11.87;62.68
79686;BME280;69153;47.918;11.428;2023-04-24T04:39:57;94256.16;;;11.80;62.63
79686;BME280;69153;47.918;11.428;2023-04-24T04:42:24;94256.75;;;11.75;63.06
79686;BME280;69153;47.918;11.428;2023-04-24T04:44:49;94263.84;;;11.78;63.34
79686;BME280;69153;47.918;11.428;2023-04-24T04:47:16;94262.31;;;11.87;62.88
79686;BME280;69153;47.918;11.428;2023-04-24T04:49:43;94261.16;;;11.88;62.62
79686;BME280;69153;47.918;11.428;2023-04-24T04:52:09;94265.16;;;11.65;63.61
79686;BME280;69153;47.918;11.428;2023-04-24T04:54:34;94267.78;;;11.74;63.08
79686;BME280;69153;47.918;11.428;2023-04-24T04:57:00;94264.88;;;11.81;62.93
79686;BME280;69153;47.918;11.428;2023-04-24T04:59:26;94266.94;;;11.77;62.94
79686;BME280;69153;47.918;11.428;2023-04-24T05:01:52;94263.84;;;11.78;62.68
79686;BME280;69153;47.918;11.428;2023-04-24T05:04:17;94270.88;;;11.81;62.02
79686;BME280;69153;47.918;11.428;2023-04-24T05:06:43;94275.63;;;11.68;62.72
79686;BME280;69153;47.918;11.428;2023-04-24T05:09:08;94280.31;;;11.73;62.36
79686;BME280;69153;47.918;11.428;2023-04-24T05:11:35;94277.22;;;11.84;62.15
79686;BME280;69153;47.918;11.428;2023-04-24T05:14:00;94278.53;;;11.70;62.25
79686;BME280;69153;47.918;11.428;2023-04-24T05:16:26;94283.88;;;11.61;62.61
79686;BME280;69153;47.918;11.428;2023-04-24T05:18:51;94283.16;;;11.52;62.32
79686;BME280;69153;47.918;11.428;2023-04-24T05:21:17;94295.53;;;11.55;61.57
79686;BME280;69153;47.918;11.428;2023-04-24T05:23:42;94297.13;;;11.70;61.81
79686;BME280;69153;47.918;11.428;2023-04-24T05:26:07;94299.63;;;11.83;61.30
79686;BME280;69153;47.918;11.428;2023-04-24T05:28:33;94302.00;;;11.90;60.98
79686;BME280;69153;47.918;11.428;2023-04-24T05:30:59;94300.69;;;11.58;61.49
79686;BME280;69153;47.918;11.428;2023-04-24T05:33:25;94298.34;;;11.51;61.68
79686;BME280;69153;47.918;11.428;2023-04-24T05:35:50;94301.72;;;11.52;61.93
79686;BME280;69153;47.918;11.428;2023-04-24T05:38:16;94300.25;;;11.51;61.86
79686;BME280;69153;47.918;11.428;2023-04-24T05:40:45;94294.06;;;11.54;62.02
79686;BME280;69153;47.918;11.428;2023-04-24T05:43:11;94290.94;;;11.73;61.76
79686;BME280;69153;47.918;11.428;2023-04-24T05:45:37;94285.38;;;11.80;60.99
79686;BME280;69153;47.918;11.428;2023-04-24T05:48:03;94285.91;;;11.85;60.63
79686;BME280;69153;47.918;11.428;2023-04-24T05:50:29;94292.28;;;11.78;60.78
79686;BME280;69153;47.918;11.428;2023-04-24T05:52:54;94289.56;;;11.96;60.57
79686;BME280;69153;47.918;11.428;2023-04-24T05:55:20;94296.38;;;11.70;61.27
79686;BME280;69153;47.918;11.428;2023-04-24T05:57:45;94297.16;;;11.79;60.93
79686;BME280;69153;47.918;11.428;2023-04-24T06:00:11;94300.06;;;11.72;61.03
79686;BME280;69153;47.918;11.428;2023-04-24T06:02:39;94300.84;;;11.55;61.54
79686;BME280;69153;47.918;11.428;2023-04-24T06:05:05;94301.28;;;11.53;61.12
79686;BME280;69153;47.918;11.428;2023-04-24T06:07:31;94296.72;;;11.54;60.19
79686;BME280;69153;47.918;11.428;2023-04-24T06:09:56;94312.78;;;11.32;61.28
79686;BME280;69153;47.918;11.428;2023-04-24T06:12:22;94315.16;;;11.39;60.28
79686;BME280;69153;47.918;11.428;2023-04-24T06:14:48;94311.44;;;11.18;62.07
79686;BME280;69153;47.918;11.428;2023-04-24T06:17:14;94309.09;;;11.48;61.16
79686;BME280;69153;47.918;11.428;2023-04-24T06:19:39;94308.22;;;11.51;60.56
79686;BME280;69153;47.918;11.428;2023-04-24T06:22:05;94308.19;;;11.69;60.84
79686;BME280;69153;47.918;11.428;2023-04-24T06:24:31;94307.59;;;11.74;59.63
79686;BME280;69153;47.918;11.428;2023-04-24T06:26:56;94309.66;;;11.88;59.97
79686;BME280;69153;47.918;11.428;2023-04-24T06:29:24;94310.25;;;11.83;59.36
79686;BME280;69153;47.918;11.428;2023-04-24T06:31:49;94308.00;;;12.00;59.10
79686;BME280;69153;47.918;11.428;2023-04-24T06:34:15;94318.34;;;11.98;58.85
79686;BME280;69153;47.918;11.428;2023-04-24T06:36:41;94312.16;;;11.82;60.26
79686;BME280;69153;47.918;11.428;2023-04-24T06:39:06;94305.34;;;12.00;59.69
79686;BME280;69153;47.918;11.428;2023-04-24T06:41:32;94307.72;;;12.07;59.16
79686;BME280;69153;47.918;11.428;2023-04-24T06:43:57;94307.59;;;11.83;59.43
79686;BME280;69153;47.918;11.428;2023-04-24T06:46:23;94311.84;;;11.99;59.44
79686;BME280;69153;47.918;11.428;2023-04-24T06:48:51;94313.97;;;12.28;58.88
79686;BME280;69153;47.918;11.428;2023-04-24T06:51:17;94306.25;;;12.39;58.72
79686;BME280;69153;47.918;11.428;2023-04-24T06:53:43;94312.03;;;12.37;58.33
79686;BME280;69153;47.918;11.428;2023-04-24T06:56:09;94313.53;;;12.29;58.58
79686;BME280;69153;47.918;11.428;2023-04-24T06:58:34;94305.88;;;12.31;57.83
79686;BME280;69153;47.918;11.428;2023-04-24T07:01:00;94315.59;;;12.25;58.35
79686;BME280;69153;47.918;11.428;2023-04-24T07:03:25;94318.81;;;12.38;58.34
79686;BME280;69153;47.918;11.428;2023-04-24T07:05:51;94321.16;;;12.45;58.87
79686;BME280;69153;47.918;11.428;2023-04-24T07:08:16;94323.81;;;12.78;58.46
79686;BME280;69153;47.918;11.428;2023-04-24T07:10:44;94323.34;;;13.04;56.93
79686;BME280;69153;47.918;11.428;2023-04-24T07:13:10;94314.53;;;12.98;56.68
79686;BME280;69153;47.918;11.428;2023-04-24T07:15:35;94325.94;;;13.13;56.73
79686;BME280;69153;47.918;11.428;2023-04-24T07:18:01;94333.19;;;13.12;55.02
79686;BME280;69153;47.918;11.428;2023-04-24T07:20:26;94339.75;;;13.02;55.08
79686;BME280;69153;47.918;11.428;2023-04-24T07:22:52;94329.41;;;13.04;54.69
79686;BME280;69153;47.918;11.428;2023-04-24T07:25:19;94328.69;;;13.04;54.99
79686;BME280;69153;47.918;11.428;2023-04-24T07:27:44;94338.50;;;13.12;54.12
79686;BME280;69153;47.918;11.428;2023-04-24T07:30:10;94330.47;;;12.74;54.81
79686;BME280;69153;47.918;11.428;2023-04-24T07:32:36;94331.69;;;12.97;54.53
79686;BME280;69153;47.918;11.428;2023-04-24T07:35:01;94337.97;;;13.08;53.90
79686;BME280;69153;47.918;11.428;2023-04-24T07:37:27;94337.22;;;13.08;53.09
79686;BME280;69153;47.918;11.428;2023-04-24T07:39:53;94337.94;;;13.17;53.37
79686;BME280;69153;47.918;11.428;2023-04-24T07:42:18;94340.97;;;13.25;53.14
79686;BME280;69153;47.918;11.428;2023-04-24T07:44:44;94344.41;;;12.93;54.87
79686;BME280;69153;47.918;11.428;2023-04-24T07:47:11;94343.94;;;12.61;54.89
79686;BME280;69153;47.918;11.428;2023-04-24T07:49:36;94345.66;;;12.73;55.11
79686;BME280;69153;47.918;11.428;2023-04-24T07:52:02;94348.75;;;13.05;54.79
79686;BME280;69153;47.918;11.428;2023-04-24T07:54:28;94353.19;;;13.08;53.51
79686;BME280;69153;47.918;11.428;2023-04-24T07:56:54;94359.56;;;13.01;54.44
79686;BME280;69153;47.918;11.428;2023-04-24T07:59:19;94354.72;;;12.67;54.25
79686;BME280;69153;47.918;11.428;2023-04-24T08:01:45;94358.94;;;12.82;53.65
79686;BME280;69153;47.918;11.428;2023-04-24T08:04:10;94368.19;;;12.87;54.50
79686;BME280;69153;47.918;11.428;2023-04-24T08:06:36;94357.91;;;12.80;54.15
79686;BME280;69153;47.918;11.428;2023-04-24T08:09:01;94371.44;;;12.58;54.68
79686;BME280;69153;47.918;11.428;2023-04-24T08:11:27;94368.28;;;12.69;54.27
79686;BME280;69153;47.918;11.428;2023-04-24T08:13:52;94371.59;;;12.87;53.87
79686;BME280;69153;47.918;11.428;2023-04-24T08:16:19;94373.56;;;12.78;54.15
79686;BME280;69153;47.918;11.428;2023-04-24T08:18:45;94374.06;;;12.67;54.18
79686;BME280;69153;47.918;11.428;2023-04-24T08:21:10;94376.16;;;12.96;54.43
79686;BME280;69153;47.918;11.428;2023-04-24T08:23:38;94384.25;;;12.60;53.32
79686;BME280;69153;47.918;11.428;2023-04-24T08:26:03;94379.84;;;12.57;54.43
79686;BME280;69153;47.918;11.428;2023-04-24T08:28:29;94375.91;;;12.43;52.78
79686;BME280;69153;47.918;11.428;2023-04-24T08:30:54;94385.22;;;12.38;51.71
79686;BME280;69153;47.918;11.428;2023-04-24T08:33:23;94388.97;;;12.65;50.43
79686;BME280;69153;47.918;11.428;2023-04-24T08:35:48;94383.34;;;12.72;50.21
79686;BME280;69153;47.918;11.428;2023-04-24T08:38:15;94393.50;;;12.73;50.20
79686;BME280;69153;47.918;11.428;2023-04-24T08:40:41;94387.53;;;12.97;49.41
79686;BME280;69153;47.918;11.428;2023-04-24T08:43:07;94400.31;;;12.74;49.73
79686;BME280;69153;47.918;11.428;2023-04-24T08:45:33;94397.97;;;12.67;50.00
79686;BME280;69153;47.918;11.428;2023-04-24T08:47:58;94412.44;;;12.66;50.83
79686;BME280;69153;47.918;11.428;2023-04-24T08:50:24;94410.47;;;12.85;51.02
79686;BME280;69153;47.918;11.428;2023-04-24T08:52:51;94416.94;;;12.93;52.73
79686;BME280;69153;47.918;11.428;2023-04-24T08:55:19;94422.69;;;12.92;52.24
79686;BME280;69153;47.918;11.428;2023-04-24T08:57:48;94429.34;;;12.87;51.59
79686;BME280;69153;47.918;11.428;2023-04-24T09:00:16;94439.34;;;13.01;51.83
79686;BME280;69153;47.918;11.428;2023-04-24T09:02:42;94442.09;;;13.16;51.80
79686;BME280;69153;47.918;11.428;2023-04-24T09:05:12;94436.34;;;13.17;51.03
79686;BME280;69153;47.918;11.428;2023-04-24T09:07:40;94443.97;;;13.24;51.59
79686;BME280;69153;47.918;11.428;2023-04-24T09:10:07;94439.47;;;13.07;50.76
79686;BME280;69153;47.918;11.428;2023-04-24T09:12:34;94438.00;;;13.06;50.28
79686;BME280;69153;47.918;11.428;2023-04-24T09:15:00;94432.41;;;13.37;50.16
79686;BME280;69153;47.918;11.428;2023-04-24T09:17:28;94437.28;;;13.62;49.74
79686;BME280;69153;47.918;11.428;2023-04-24T09:19:54;94438.94;;;13.98;48.98
79686;BME280;69153;47.918;11.428;2023-04-24T09:22:21;94436.09;;;14.16;48.23
79686;BME280;69153;47.918;11.428;2023-04-24T09:24:47;94441.38;;;14.25;47.22
79686;BME280;69153;47.918;11.428;2023-04-24T09:27:13;94451.66;;;14.32;47.16
79686;BME280;69153;47.918;11.428;2023-04-24T09:29:56;94440.81;;;14.21;47.63
79686;BME280;69153;47.918;11.428;2023-04-24T09:32:22;94439.63;;;14.37;46.97
79686;BME280;69153;47.918;11.428;2023-04-24T09:35:08;94438.84;;;14.07;47.37
79686;BME280;69153;47.918;11.428;2023-04-24T09:37:40;94431.88;;;14.10;48.29
79686;BME280;69153;47.918;11.428;2023-04-24T09:40:08;94429.75;;;13.99;47.87
79686;BME280;69153;47.918;11.428;2023-04-24T09:42:33;94433.13;;;13.85;48.92
79686;BME280;69153;47.918;11.428;2023-04-24T09:44:59;94424.69;;;13.86;47.99
79686;BME280;69153;47.918;11.428;2023-04-24T09:47:24;94423.41;;;13.97;48.17
79686;BME280;69153;47.918;11.428;2023-04-24T09:49:50;94415.63;;;14.08;48.00
79686;BME280;69153;47.918;11.428;2023-04-24T09:52:15;94419.31;;;14.10;47.69
79686;BME280;69153;47.918;11.428;2023-04-24T09:54:41;94408.22;;;14.26;47.34
79686;BME280;69153;47.918;11.428;2023-04-24T09:57:09;94406.28;;;14.56;47.25
79686;BME280;69153;47.918;11.428;2023-04-24T09:59:35;94418.13;;;15.20;45.95
79686;BME280;69153;47.918;11.428;2023-04-24T10:02:00;94410.81;;;15.15;44.83
79686;BME280;69153;47.918;11.428;2023-04-24T10:04:28;94406.34;;;14.91;46.21
79686;BME280;69153;47.918;11.428;2023-04-24T10:06:55;94404.44;;;14.77;45.26
79686;BME280;69153;47.918;11.428;2023-04-24T10:09:24;94403.31;;;14.10;46.75
79686;BME280;69153;47.918;11.428;2023-04-24T10:11:52;94400.88;;;14.51;45.70
79686;BME280;69153;47.918;11.428;2023-04-24T10:14:20;94403.69;;;14.32;44.85
79686;BME280;69153;47.918;11.428;2023-04-24T10:16:51;94395.88;;;14.29;44.62
79686;BME280;69153;47.918;11.428;2023-04-24T10:19:17;94397.72;;;14.38;43.68
79686;BME280;69153;47.918;11.428;2023-04-24T10:21:46;94408.88;;;14.65;42.46
79686;BME280;69153;47.918;11.428;2023-04-24T10:24:16;94404.28;;;14.51;43.27
79686;BME280;69153;47.918;11.428;2023-04-24T10:26:44;94405.25;;;14.83;43.07
79686;BME280;69153;47.918;11.428;2023-04-24T10:29:12;94408.75;;;15.24;41.33
79686;BME280;69153;47.918;11.428;2023-04-24T10:31:38;94399.63;;;15.51;41.43
79686;BME280;69153;47.918;11.428;2023-04-24T10:34:06;94400.63;;;15.94;40.32
79686;BME280;69153;47.918;11.428;2023-04-24T10:36:38;94410.94;;;15.81;40.51
79686;BME280;69153;47.918;11.428;2023-04-24T10:39:09;94410.31;;;15.71;38.99
79686;BME280;69153;47.918;11.428;2023-04-24T10:41:37;94400.13;;;15.35;40.18
79686;BME280;69153;47.918;11.428;2023-04-24T10:44:07;94412.66;;;15.09;40.08
79686;BME280;69153;47.918;11.428;2023-04-24T10:46:34;94411.78;;;14.82;41.40
79686;BME280;69153;47.918;11.428;2023-04-24T10:49:04;94416.94;;;14.71;41.28
79686;BME280;69153;47.918;11.428;2023-04-24T10:51:52;94415.47;;;14.85;41.64
79686;BME280;69153;47.918;11.428;2023-04-24T10:54:26;94440.03;;;14.74;42.96
79686;BME280;69153;47.918;11.428;2023-04-24T10:56:53;94441.16;;;14.53;43.59
79686;BME280;69153;47.918;11.428;2023-04-24T10:59:26;94419.63;;;14.71;43.02
79686;BME280;69153;47.918;11.428;2023-04-24T11:01:53;94425.41;;;15.54;41.69
79686;BME280;69153;47.918;11.428;2023-04-24T11:04:31;94424.31;;;15.46;41.36
79686;BME280;69153;47.918;11.428;2023-04-24T11:06:57;94427.19;;;15.43;41.95
79686;BME280;69153;47.918;11.428;2023-04-24T11:09:30;94427.53;;;15.15;42.78
79686;BME280;69153;47.918;11.428;2023-04-24T11:12:05;94420.31;;;15.01;43.16
79686;BME280;69153;47.918;11.428;2023-04-24T11:17:32;94459.13;;;14.43;45.54
79686;BME280;69153;47.918;11.428;2023-04-24T11:22:36;94474.34;;;13.89;49.78
79686;BME280;69153;47.918;11.428;2023-04-24T11:25:03;94474.88;;;14.71;48.20
79686;BME280;69153;47.918;11.428;2023-04-24T11:27:41;94477.78;;;15.87;45.92
79686;BME280;69153;47.918;11.428;2023-04-24T11:30:08;94474.91;;;16.36;45.28
79686;BME280;69153;47.918;11.428;2023-04-24T11:32:42;94461.31;;;16.34;44.71
79686;BME280;69153;47.918;11.428;2023-04-24T11:35:20;94454.31;;;17.31;41.96
79686;BME280;69153;47.918;11.428;2023-04-24T11:37:48;94445.72;;;18.18;39.88
79686;BME280;69153;47.918;11.428;2023-04-24T11:40:17;94443.09;;;18.51;39.15
79686;BME280;69153;47.918;11.428;2023-04-24T11:42:50;94441.38;;;17.24;40.64
79686;BME280;69153;47.918;11.428;2023-04-24T11:45:20;94445.47;;;16.31;42.67
79686;BME280;69153;47.918;11.428;2023-04-24T11:47:46;94437.53;;;16.94;41.75
79686;BME280;69153;47.918;11.428;2023-04-24T11:50:17;94434.94;;;16.73;41.16
79686;BME280;69153;47.918;11.428;2023-04-24T11:52:48;94444.00;;;16.82;41.21
79686;BME280;69153;47.918;11.428;2023-04-24T11:57:42;94447.00;;;16.63;43.15
79686;BME280;69153;47.918;11.428;2023-04-24T12:00:16;94430.41;;;16.07;43.22
79686;BME280;69153;47.918;11.428;2023-04-24T12:02:42;94423.03;;;16.23;44.04
79686;BME280;69153;47.918;11.428;2023-04-24T12:05:08;94435.44;;;15.80;43.33
79686;BME280;69153;47.918;11.428;2023-04-24T12:07:41;94433.19;;;16.19;41.93
79686;BME280;69153;47.918;11.428;2023-04-24T12:10:10;94419.94;;;15.84;41.73
79686;BME280;69153;47.918;11.428;2023-04-24T12:12:36;94435.50;;;16.05;41.98
79686;BME280;69153;47.918;11.428;2023-04-24T12:15:07;94436.16;;;16.00;41.73
79686;BME280;69153;47.918;11.428;2023-04-24T12:17:34;94434.88;;;16.16;39.80
79686;BME280;69153;47.918;11.428;2023-04-24T12:20:04;94437.81;;;16.18;39.29
79686;BME280;69153;47.918;11.428;2023-04-24T12:22:51;94436.09;;;15.75;40.59
79686;BME280;69153;47.918;11.428;2023-04-24T12:25:19;94449.19;;;15.72;39.81
79686;BME280;69153;47.918;11.428;2023-04-24T12:27:46;94439.34;;;15.44;41.10
79686;BME280;69153;47.918;11.428;2023-04-24T12:30:16;94455.34;;;15.09;41.95
79686;BME280;69153;47.918;11.428;2023-04-24T12:32:47;94438.03;;;15.19;42.50
79686;BME280;69153;47.918;11.428;2023-04-24T12:35:13;94448.94;;;15.35;41.28
79686;BME280;69153;47.918;11.428;2023-04-24T12:37:42;94439.72;;;15.36;40.32
79686;BME280;69153;47.918;11.428;2023-04-24T12:40:12;94440.53;;;15.08;39.92
79686;BME280;69153;47.918;11.428;2023-04-24T12:42:46;94494.38;;;14.91;42.09
79686;BME280;69153;47.918;11.428;2023-04-24T12:45:13;94525.84;;;13.30;50.54
79686;BME280;69153;47.918;11.428;2023-04-24T12:47:40;94521.44;;;12.57;52.75
79686;BME280;69153;47.918;11.428;2023-04-24T12:50:08;94527.16;;;11.82;59.49
79686;BME280;69153;47.918;11.428;2023-04-24T12:52:34;94524.78;;;11.85;56.96
79686;BME280;69153;47.918;11.428;2023-04-24T12:55:00;94512.59;;;12.05;57.23